createdAt,value
2023-05-21T00:01:40.065Z,102167.63
2023-05-21T00:03:46.435Z,102182.47
2023-05-21T00:05:55.082Z,102176.44
2023-05-21T00:08:00.041Z,102173.81
2023-05-21T00:10:05.203Z,102173.84
2023-05-21T00:12:12.286Z,102171.94
2023-05-21T00:14:20.405Z,102164.09
2023-05-21T00:16:28.837Z,102160.56
2023-05-21T00:18:39.005Z,102166.88
2023-05-21T00:20:45.965Z,102160.81
2023-05-21T00:22:53.877Z,102164.28
2023-05-21T00:24:59.636Z,102160.81
2023-05-21T00:27:09.161Z,102162.53
2023-05-21T00:29:18.968Z,102158.00
2023-05-21T00:31:27.104Z,102154.53
2023-05-21T00:33:34.658Z,102159.75
2023-05-21T00:35:40.220Z,102149.16
2023-05-21T00:37:45.658Z,102150.06
2023-05-21T00:39:58.578Z,102155.28
2023-05-21T00:42:07.890Z,102153.59
2023-05-21T00:44:14.271Z,102151.03
2023-05-21T00:46:24.689Z,102148.28
2023-05-21T00:48:30.416Z,102147.28
2023-05-21T00:50:36.519Z,102153.44
2023-05-21T00:52:45.939Z,102144.63
2023-05-21T00:54:55.026Z,102142.06
2023-05-21T00:57:00.882Z,102142.94
2023-05-21T00:59:06.248Z,102151.53
2023-05-21T01:01:14.474Z,102142.84
2023-05-21T01:03:22.175Z,102146.22
2023-05-21T01:05:27.610Z,102139.13
2023-05-21T01:07:40.181Z,102138.19
2023-05-21T01:09:46.455Z,102141.72
2023-05-21T01:11:55.049Z,102138.13
2023-05-21T01:14:00.956Z,102135.56
2023-05-21T01:16:09.975Z,102140.69
2023-05-21T01:18:17.926Z,102131.00
2023-05-21T01:20:26.694Z,102136.16
2023-05-21T01:22:39.866Z,102124.00
2023-05-21T01:24:49.205Z,102128.28
2023-05-21T01:26:54.184Z,102132.78
2023-05-21T01:29:02.772Z,102127.59
2023-05-21T01:31:19.470Z,102131.94
2023-05-21T01:33:38.862Z,102126.75
2023-05-21T01:35:47.603Z,102125.91
2023-05-21T01:37:58.978Z,102131.94
2023-05-21T01:40:12.515Z,102131.91
2023-05-21T01:42:25.284Z,102132.88
2023-05-21T01:44:31.010Z,102136.66
2023-05-21T01:46:41.176Z,102138.47
2023-05-21T01:48:49.880Z,102132.47
2023-05-21T01:50:56.286Z,102129.00
2023-05-21T01:53:03.949Z,102135.09
2023-05-21T01:55:13.875Z,102129.81
2023-05-21T01:57:19.502Z,102134.91
2023-05-21T01:59:25.171Z,102124.47
2023-05-21T02:01:30.730Z,102128.81
2023-05-21T02:03:36.701Z,102128.78
2023-05-21T02:05:45.396Z,102130.47
2023-05-21T02:07:55.042Z,102136.47
2023-05-21T02:10:01.467Z,102130.38
2023-05-21T02:12:10.314Z,102129.50
2023-05-21T02:14:19.502Z,102132.13
2023-05-21T02:16:27.927Z,102118.06
2023-05-21T02:18:34.507Z,102119.72
2023-05-21T02:20:40.071Z,102120.63
2023-05-21T02:22:49.287Z,102123.19
2023-05-21T02:24:55.402Z,102124.84
2023-05-21T02:27:00.434Z,102122.25
2023-05-21T02:29:13.039Z,102117.66
2023-05-21T02:31:19.117Z,102124.63
2023-05-21T02:33:24.176Z,102121.94
2023-05-21T02:35:32.501Z,102123.69
2023-05-21T02:37:41.937Z,102123.72
2023-05-21T02:39:46.769Z,102124.56
2023-05-21T02:41:52.191Z,102123.72
2023-05-21T02:44:00.004Z,102122.78
2023-05-21T02:46:09.999Z,102131.41
2023-05-21T02:48:15.544Z,102124.31
2023-05-21T02:50:25.414Z,102117.28
2023-05-21T02:52:31.780Z,102118.84
2023-05-21T02:54:36.935Z,102118.81
2023-05-21T02:56:42.742Z,102111.75
2023-05-21T02:58:47.806Z,102115.28
2023-05-21T03:00:58.095Z,102115.28
2023-05-21T03:03:06.186Z,102114.31
2023-05-21T03:05:11.736Z,102115.03
2023-05-21T03:07:20.746Z,102117.66
2023-05-21T03:09:30.358Z,102114.06
2023-05-21T03:11:35.546Z,102111.41
2023-05-21T03:13:43.040Z,102118.47
2023-05-21T03:15:49.611Z,102120.16
2023-05-21T03:17:55.478Z,102112.13
2023-05-21T03:20:08.342Z,102111.09
2023-05-21T03:22:14.227Z,102104.88
2023-05-21T03:24:19.267Z,102106.53
2023-05-21T03:26:27.279Z,102105.72
2023-05-21T03:28:39.743Z,102104.88
2023-05-21T03:30:46.706Z,102104.00
2023-05-21T03:32:52.003Z,102112.69
2023-05-21T03:35:02.897Z,102114.34
2023-05-21T03:37:08.591Z,102104.63
2023-05-21T03:39:16.775Z,102106.44
2023-05-21T03:41:28.870Z,102107.25
2023-05-21T03:43:34.265Z,102097.56
2023-05-21T03:45:42.782Z,102100.16
2023-05-21T03:47:52.475Z,102104.50
2023-05-21T03:49:57.464Z,102102.72
2023-05-21T03:52:05.358Z,102107.97
2023-05-21T03:54:10.574Z,102101.78
2023-05-21T03:56:21.914Z,102103.59
2023-05-21T03:58:30.773Z,102098.38
2023-05-21T04:00:38.551Z,102100.91
2023-05-21T04:02:43.912Z,102102.69
2023-05-21T04:04:51.684Z,102096.38
2023-05-21T04:06:57.032Z,102101.59
2023-05-21T04:09:06.650Z,102106.91
2023-05-21T04:11:13.152Z,102103.31
2023-05-21T04:13:18.103Z,102102.44
2023-05-21T04:15:30.349Z,102100.78
2023-05-21T04:17:35.669Z,102098.13
2023-05-21T04:19:42.279Z,102105.13
2023-05-21T04:21:47.198Z,102102.47
2023-05-21T04:23:57.749Z,102096.09
2023-05-21T04:26:10.759Z,102100.66
2023-05-21T04:28:20.625Z,102099.91
2023-05-21T04:30:27.738Z,102100.78
2023-05-21T04:32:35.370Z,102111.34
2023-05-21T04:34:43.279Z,102108.69
2023-05-21T04:36:49.455Z,102105.09
2023-05-21T04:38:55.052Z,102101.28
2023-05-21T04:41:04.124Z,102103.91
2023-05-21T04:43:13.805Z,102107.31
2023-05-21T04:45:19.179Z,102103.63
2023-05-21T04:47:25.491Z,102101.97
2023-05-21T04:49:30.597Z,102102.69
2023-05-21T04:51:38.130Z,102105.34
2023-05-21T04:53:43.226Z,102111.56
2023-05-21T04:55:48.396Z,102101.78
2023-05-21T04:57:54.263Z,102098.94
2023-05-21T05:00:06.431Z,102108.47
2023-05-21T05:02:12.328Z,102103.25
2023-05-21T05:04:17.560Z,102097.09
2023-05-21T05:06:22.516Z,102091.63
2023-05-21T05:08:27.582Z,102098.50
2023-05-21T05:10:35.120Z,102095.75
2023-05-21T05:12:39.998Z,102097.44
2023-05-21T05:14:47.910Z,102091.28
2023-05-21T05:17:00.165Z,102093.63
2023-05-21T05:19:06.609Z,102093.50
2023-05-21T05:21:12.655Z,102097.88
2023-05-21T05:23:18.115Z,102094.38
2023-05-21T05:25:26.264Z,102092.47
2023-05-21T05:27:31.542Z,102093.13
2023-05-21T05:29:37.250Z,102090.31
2023-05-21T05:31:42.501Z,102082.44
2023-05-21T05:33:51.092Z,102086.63
2023-05-21T05:35:59.810Z,102091.06
2023-05-21T05:38:05.053Z,102080.50
2023-05-21T05:40:11.309Z,102079.28
2023-05-21T05:42:16.376Z,102079.28
2023-05-21T05:44:21.842Z,102076.34
2023-05-21T05:46:27.735Z,102066.59
2023-05-21T05:48:34.415Z,102081.25
2023-05-21T05:50:43.002Z,102067.16
2023-05-21T05:52:48.554Z,102071.50
2023-05-21T05:55:00.074Z,102073.06
2023-05-21T05:57:05.165Z,102067.72
2023-05-21T05:59:10.212Z,102064.66
2023-05-21T06:01:16.706Z,102063.44
2023-05-21T06:03:22.450Z,102066.66
2023-05-21T06:05:27.673Z,102074.25
2023-05-21T06:07:35.311Z,102076.59
2023-05-21T06:09:41.625Z,102083.16
2023-05-21T06:11:46.662Z,102075.91
2023-05-21T06:13:51.531Z,102069.88
2023-05-21T06:15:58.805Z,102079.72
2023-05-21T06:18:03.897Z,102075.09
2023-05-21T06:20:12.584Z,102074.91
2023-05-21T06:22:17.709Z,102075.69
2023-05-21T06:24:25.553Z,102085.50
2023-05-21T06:26:31.627Z,102080.59
2023-05-21T06:28:37.195Z,102088.47
2023-05-21T06:30:42.942Z,102084.44
2023-05-21T06:32:47.938Z,102079.56
2023-05-21T06:34:56.612Z,102076.44
2023-05-21T06:37:01.599Z,102076.81
2023-05-21T06:39:06.745Z,102082.94
2023-05-21T06:41:14.381Z,102085.19
2023-05-21T06:43:28.982Z,102081.88
2023-05-21T06:45:34.081Z,102085.19
2023-05-21T06:47:39.308Z,102083.31
2023-05-21T06:49:44.354Z,102083.31
2023-05-21T06:51:50.996Z,102089.59
2023-05-21T06:53:58.441Z,102085.09
2023-05-21T06:56:03.310Z,102081.81
2023-05-21T06:58:11.240Z,102080.28
2023-05-21T07:00:17.538Z,102087.59
2023-05-21T07:02:27.578Z,102087.56
2023-05-21T07:04:35.384Z,102089.34
2023-05-21T07:06:43.254Z,102085.22
2023-05-21T07:08:52.837Z,102086.38
2023-05-21T07:10:58.142Z,102093.59
2023-05-21T07:13:03.111Z,102095.44
2023-05-21T07:15:12.795Z,102091.53
2023-05-21T07:17:17.678Z,102091.03
2023-05-21T07:19:26.415Z,102088.00
2023-05-21T07:21:33.320Z,102097.25
2023-05-21T07:23:38.511Z,102093.38
2023-05-21T07:25:44.167Z,102097.19
2023-05-21T07:27:49.288Z,102100.69
2023-05-21T07:29:56.523Z,102097.81
2023-05-21T07:32:04.169Z,102098.66
2023-05-21T07:34:09.430Z,102101.00
2023-05-21T07:36:14.540Z,102092.81
2023-05-21T07:38:19.474Z,102102.44
2023-05-21T07:40:26.878Z,102097.66
2023-05-21T07:42:31.983Z,102090.97
2023-05-21T07:44:38.902Z,102087.84
2023-05-21T07:46:43.975Z,102091.69
2023-05-21T07:48:51.830Z,102092.09
2023-05-21T07:50:57.004Z,102082.69
2023-05-21T07:53:02.114Z,102082.09
2023-05-21T07:55:07.973Z,102074.28
2023-05-21T07:57:13.024Z,102078.91
2023-05-21T07:59:22.122Z,102082.88
2023-05-21T08:01:27.545Z,102073.91
2023-05-21T08:03:37.588Z,102081.06
2023-05-21T08:05:49.270Z,102073.69
2023-05-21T08:07:54.325Z,102071.25
2023-05-21T08:10:03.069Z,102069.16
2023-05-21T08:12:11.584Z,102076.78
2023-05-21T08:14:16.687Z,102078.13
2023-05-21T08:16:23.693Z,102079.28
2023-05-21T08:18:30.748Z,102075.34
2023-05-21T08:20:38.121Z,102088.88
2023-05-21T08:22:46.339Z,102085.25
2023-05-21T08:24:54.027Z,102082.91
2023-05-21T08:27:00.151Z,102079.06
2023-05-21T08:29:05.245Z,102077.22
2023-05-21T08:31:12.912Z,102072.34
2023-05-21T08:33:21.406Z,102076.56
2023-05-21T08:35:26.753Z,102080.03
2023-05-21T08:37:31.870Z,102077.69
2023-05-21T08:39:41.399Z,102070.25
2023-05-21T08:41:49.995Z,102071.34
2023-05-21T08:43:59.869Z,102066.22
2023-05-21T08:46:07.816Z,102065.19
2023-05-21T08:48:14.776Z,102058.47
2023-05-21T08:50:21.473Z,102053.94
2023-05-21T08:52:31.821Z,102055.13
2023-05-21T08:54:40.107Z,102054.94
2023-05-21T08:56:49.862Z,102061.47
2023-05-21T08:58:55.493Z,102054.78
2023-05-21T09:01:01.270Z,102058.88
2023-05-21T09:03:11.865Z,102070.91
2023-05-21T09:05:19.687Z,102063.13
2023-05-21T09:07:30.518Z,102061.94
2023-05-21T09:09:50.736Z,102051.97
2023-05-21T09:11:59.164Z,102043.81
2023-05-21T09:14:05.647Z,102039.97
2023-05-21T09:16:12.875Z,102049.59
2023-05-21T09:18:21.263Z,102047.59
2023-05-21T09:20:31.315Z,102046.94
2023-05-21T09:22:36.601Z,102039.69
2023-05-21T09:24:48.153Z,102053.69
2023-05-21T09:26:58.560Z,102040.34
2023-05-21T09:29:07.125Z,102045.56
2023-05-21T09:31:15.987Z,102039.50
2023-05-21T09:33:36.747Z,102042.38
2023-05-21T09:35:48.384Z,102028.34
2023-05-21T09:37:57.733Z,102036.16
2023-05-21T09:40:05.619Z,102037.31
2023-05-21T09:42:11.195Z,102036.06
2023-05-21T09:44:16.814Z,102038.25
2023-05-21T09:46:25.388Z,102031.09
2023-05-21T09:48:41.500Z,102035.31
2023-05-21T09:50:46.640Z,102036.78
2023-05-21T09:52:53.319Z,102035.06
2023-05-21T09:55:00.611Z,102042.13
2023-05-21T09:57:08.337Z,102027.94
2023-05-21T09:59:13.268Z,102033.56
2023-05-21T10:01:18.378Z,102029.97
2023-05-21T10:03:28.830Z,102030.31
2023-05-21T10:05:34.181Z,102027.63
2023-05-21T10:07:39.829Z,102029.13
2023-05-21T10:09:46.699Z,102032.13
2023-05-21T10:11:56.857Z,102025.38
2023-05-21T10:14:08.538Z,102026.44
2023-05-21T10:16:15.523Z,102025.59
2023-05-21T10:18:22.989Z,102020.97
2023-05-21T10:20:28.936Z,102016.31
2023-05-21T10:22:34.607Z,102020.16
2023-05-21T10:24:41.366Z,102013.91
2023-05-21T10:26:47.851Z,102011.47
2023-05-21T10:28:58.738Z,102007.53
2023-05-21T10:31:07.214Z,102013.59
2023-05-21T10:33:12.800Z,102018.25
2023-05-21T10:35:19.439Z,102006.91
2023-05-21T10:37:26.814Z,102002.66
2023-05-21T10:39:33.401Z,102001.47
2023-05-21T10:41:46.210Z,102007.44
2023-05-21T10:43:57.148Z,102008.75
2023-05-21T10:46:35.981Z,101998.53
2023-05-21T10:49:01.801Z,101988.38
2023-05-21T10:51:24.473Z,102002.91
2023-05-21T10:53:43.652Z,101989.91
2023-05-21T10:56:07.219Z,102002.97
2023-05-21T10:58:41.529Z,101999.16
2023-05-21T11:00:47.367Z,101995.97
2023-05-21T11:02:53.893Z,101989.50
2023-05-21T11:05:04.959Z,101985.22
2023-05-21T11:07:09.936Z,101984.47
2023-05-21T11:09:17.083Z,101981.13
2023-05-21T11:11:48.814Z,101979.34
2023-05-21T11:13:54.210Z,101966.19
2023-05-21T11:16:16.978Z,101969.97
2023-05-21T11:18:23.726Z,101973.00
2023-05-21T11:20:39.718Z,101968.34
2023-05-21T11:22:46.876Z,101963.75
2023-05-21T11:24:51.985Z,101964.19
2023-05-21T11:27:07.738Z,101969.34
2023-05-21T11:29:15.103Z,101957.25
2023-05-21T11:31:27.131Z,101956.13
2023-05-21T11:33:35.201Z,101951.81
2023-05-21T11:36:00.457Z,101947.97
2023-05-21T11:38:07.695Z,101937.69
2023-05-21T11:40:30.909Z,101947.13
2023-05-21T11:42:37.325Z,101939.19
2023-05-21T11:44:46.210Z,101950.75
2023-05-21T11:46:52.058Z,101943.22
2023-05-21T11:48:58.387Z,101936.41
2023-05-21T11:51:06.299Z,101944.41
2023-05-21T11:53:13.207Z,101946.47
2023-05-21T11:55:21.649Z,101935.59
2023-05-21T11:57:31.029Z,101929.47
2023-05-21T11:59:38.609Z,101931.25
2023-05-21T12:01:46.708Z,101920.78
2023-05-21T12:03:52.013Z,101922.69
2023-05-21T12:05:58.386Z,101925.31
2023-05-21T12:08:11.509Z,101928.38
2023-05-21T12:10:16.685Z,101915.47
2023-05-21T12:12:35.350Z,101919.41
2023-05-21T12:14:49.992Z,101927.06
2023-05-21T12:16:57.912Z,101919.22
2023-05-21T12:19:03.236Z,101925.03
2023-05-21T12:21:10.011Z,101917.13
2023-05-21T12:23:27.230Z,101924.75
2023-05-21T12:25:35.129Z,101926.16
2023-05-21T12:27:42.640Z,101928.91
2023-05-21T12:29:49.184Z,101921.25
2023-05-21T12:31:54.481Z,101923.53
2023-05-21T12:34:02.519Z,101925.41
2023-05-21T12:36:08.477Z,101910.97
2023-05-21T12:38:14.410Z,101909.78
2023-05-21T12:40:22.821Z,101911.00
2023-05-21T12:42:32.237Z,101910.41
2023-05-21T12:44:41.417Z,101907.72
2023-05-21T12:46:47.335Z,101897.03
2023-05-21T12:48:56.853Z,101904.44
2023-05-21T12:51:02.416Z,101906.41
2023-05-21T12:53:10.459Z,101907.47
2023-05-21T12:55:17.691Z,101905.91
2023-05-21T12:57:27.012Z,101912.66
2023-05-21T12:59:43.426Z,101910.16
2023-05-21T13:01:50.904Z,101907.44
2023-05-21T13:03:56.554Z,101908.97
2023-05-21T13:06:02.236Z,101912.63
2023-05-21T13:08:07.560Z,101919.09
2023-05-21T13:10:14.600Z,101912.13
2023-05-21T13:12:22.195Z,101919.78
2023-05-21T13:14:30.230Z,101918.28
2023-05-21T13:16:39.387Z,101920.28
2023-05-21T13:18:44.579Z,101921.47
2023-05-21T13:20:51.804Z,101912.25
2023-05-21T13:22:56.897Z,101911.56
2023-05-21T13:25:02.059Z,101907.50
2023-05-21T13:27:07.114Z,101909.31
2023-05-21T13:29:14.823Z,101907.81
2023-05-21T13:31:24.760Z,101909.44
2023-05-21T13:33:32.115Z,101911.09
2023-05-21T13:35:39.269Z,101901.44
2023-05-21T13:37:45.426Z,101896.53
2023-05-21T13:39:51.978Z,101907.34
2023-05-21T13:41:57.455Z,101897.81
2023-05-21T13:44:02.739Z,101900.63
2023-05-21T13:46:08.270Z,101910.13
2023-05-21T13:48:16.125Z,101905.59
2023-05-21T13:50:21.165Z,101898.75
2023-05-21T13:52:28.723Z,101906.13
2023-05-21T13:54:34.881Z,101896.09
2023-05-21T13:56:40.079Z,101899.19
2023-05-21T13:58:46.334Z,101884.31
2023-05-21T14:00:51.485Z,101885.91
2023-05-21T14:02:56.952Z,101894.53
2023-05-21T14:05:07.052Z,101889.34
2023-05-21T14:07:14.342Z,101883.09
2023-05-21T14:09:30.048Z,101885.09
2023-05-21T14:11:38.655Z,101882.16
2023-05-21T14:13:44.807Z,101877.41
2023-05-21T14:15:50.137Z,101878.50
2023-05-21T14:17:56.632Z,101871.09
2023-05-21T14:20:04.314Z,101875.13
2023-05-21T14:22:09.326Z,101877.81
2023-05-21T14:24:14.757Z,101874.09
2023-05-21T14:26:23.438Z,101867.31
2023-05-21T14:28:28.834Z,101871.50
2023-05-21T14:30:33.985Z,101871.13
2023-05-21T14:32:39.190Z,101861.75
2023-05-21T14:34:44.741Z,101868.56
2023-05-21T14:36:53.857Z,101878.84
2023-05-21T14:39:01.390Z,101859.47
2023-05-21T14:41:07.749Z,101867.59
2023-05-21T14:43:13.002Z,101866.56
2023-05-21T14:45:19.691Z,101862.88
2023-05-21T14:47:26.272Z,101866.03
2023-05-21T14:49:31.680Z,101851.03
2023-05-21T14:51:39.023Z,101863.44
2023-05-21T14:53:47.563Z,101858.66
2023-05-21T14:55:54.423Z,101861.91
2023-05-21T14:57:59.674Z,101852.66
2023-05-21T15:00:05.809Z,101850.00
2023-05-21T15:02:10.996Z,101846.78
2023-05-21T15:04:16.430Z,101843.50
2023-05-21T15:06:26.023Z,101846.09
2023-05-21T15:08:34.115Z,101850.28
2023-05-21T15:10:41.817Z,101851.59
2023-05-21T15:12:47.555Z,101845.66
2023-05-21T15:14:58.885Z,101843.41
2023-05-21T15:17:03.922Z,101856.78
2023-05-21T15:19:09.016Z,101854.56
2023-05-21T15:21:14.733Z,101843.22
2023-05-21T15:23:20.142Z,101848.81
2023-05-21T15:25:28.609Z,101849.34
2023-05-21T15:27:37.000Z,101843.78
2023-05-21T15:29:43.229Z,101842.66
2023-05-21T15:31:48.244Z,101845.84
2023-05-21T15:33:58.012Z,101842.84
2023-05-21T15:36:03.867Z,101831.06
2023-05-21T15:38:09.052Z,101837.44
2023-05-21T15:40:15.724Z,101841.59
2023-05-21T15:42:20.813Z,101843.41
2023-05-21T15:44:30.537Z,101837.88
2023-05-21T15:46:35.813Z,101835.25
2023-05-21T15:48:41.227Z,101836.00
2023-05-21T15:50:46.288Z,101835.84
2023-05-21T15:52:53.318Z,101834.38
2023-05-21T15:54:59.166Z,101832.94
2023-05-21T15:57:04.323Z,101841.91
2023-05-21T15:59:09.364Z,101831.78
2023-05-21T16:01:17.937Z,101828.09
2023-05-21T16:03:27.983Z,101832.53
2023-05-21T16:05:34.034Z,101848.03
2023-05-21T16:07:39.233Z,101835.91
2023-05-21T16:09:45.000Z,101834.91
2023-05-21T16:11:53.184Z,101841.91
2023-05-21T16:13:58.252Z,101850.66
2023-05-21T16:16:03.084Z,101852.16
2023-05-21T16:18:11.848Z,101856.69
2023-05-21T16:20:19.287Z,101846.06
2023-05-21T16:22:27.267Z,101850.63
2023-05-21T16:24:32.457Z,101859.38
2023-05-21T16:26:38.954Z,101855.09
2023-05-21T16:28:44.982Z,101866.63
2023-05-21T16:30:49.876Z,101854.78
2023-05-21T16:32:56.023Z,101858.50
2023-05-21T16:35:03.827Z,101866.47
2023-05-21T16:37:10.004Z,101858.59
2023-05-21T16:39:15.241Z,101857.78
2023-05-21T16:41:20.679Z,101856.03
2023-05-21T16:43:29.213Z,101861.63
2023-05-21T16:45:42.193Z,101860.38
2023-05-21T16:47:48.239Z,101856.97
2023-05-21T16:49:58.903Z,101858.91
2023-05-21T16:52:06.879Z,101870.19
2023-05-21T16:54:12.135Z,101865.34
2023-05-21T16:56:22.247Z,101863.31
2023-05-21T16:58:27.410Z,101860.06
2023-05-21T17:00:33.359Z,101858.47
2023-05-21T17:02:38.578Z,101858.28
2023-05-21T17:04:44.654Z,101866.25
2023-05-21T17:06:49.738Z,101855.91
2023-05-21T17:08:57.574Z,101863.03
2023-05-21T17:11:02.647Z,101863.88
2023-05-21T17:13:20.796Z,101859.31
2023-05-21T17:15:27.500Z,101866.25
2023-05-21T17:17:33.326Z,101852.53
2023-05-21T17:19:38.992Z,101858.06
2023-05-21T17:21:44.753Z,101855.63
2023-05-21T17:23:53.181Z,101870.66
2023-05-21T17:26:01.855Z,101870.25
2023-05-21T17:28:06.984Z,101864.25
2023-05-21T17:30:13.563Z,101865.72
2023-05-21T17:32:20.854Z,101855.50
2023-05-21T17:34:30.597Z,101858.00
2023-05-21T17:36:35.993Z,101862.19
2023-05-21T17:38:41.509Z,101855.34
2023-05-21T17:40:51.396Z,101859.34
2023-05-21T17:43:02.005Z,101867.63
2023-05-21T17:45:08.275Z,101871.44
2023-05-21T17:47:13.706Z,101869.06
2023-05-21T17:49:19.404Z,101860.53
2023-05-21T17:51:26.820Z,101865.06
2023-05-21T17:53:31.672Z,101864.59
2023-05-21T17:55:36.850Z,101856.56
2023-05-21T17:57:41.997Z,101867.44
2023-05-21T17:59:50.430Z,101862.16
2023-05-21T18:01:58.077Z,101863.47
2023-05-21T18:04:03.082Z,101867.38
2023-05-21T18:06:09.624Z,101868.94
2023-05-21T18:08:15.169Z,101868.22
2023-05-21T18:10:20.846Z,101872.41
2023-05-21T18:12:28.918Z,101867.00
2023-05-21T18:14:34.256Z,101869.75
2023-05-21T18:16:41.839Z,101869.59
2023-05-21T18:18:47.942Z,101866.09
2023-05-21T18:20:58.001Z,101877.28
2023-05-21T18:23:03.022Z,101876.13
2023-05-21T18:25:11.555Z,101868.53
2023-05-21T18:27:16.681Z,101875.75
2023-05-21T18:29:26.707Z,101869.81
2023-05-21T18:31:32.214Z,101872.09
2023-05-21T18:33:40.063Z,101873.78
2023-05-21T18:35:45.319Z,101872.72
2023-05-21T18:37:50.455Z,101881.59
2023-05-21T18:39:55.466Z,101886.34
2023-05-21T18:42:12.103Z,101885.25
2023-05-21T18:44:21.280Z,101881.91
2023-05-21T18:46:28.960Z,101887.91
2023-05-21T18:48:34.032Z,101884.44
2023-05-21T18:50:41.851Z,101890.09
2023-05-21T18:52:47.675Z,101889.69
2023-05-21T18:54:53.147Z,101891.97
2023-05-21T18:57:00.595Z,101893.56
2023-05-21T18:59:05.748Z,101879.94
2023-05-21T19:01:11.127Z,101894.81
2023-05-21T19:03:16.647Z,101893.84
2023-05-21T19:05:22.575Z,101893.66
2023-05-21T19:07:30.231Z,101893.41
2023-05-21T19:09:35.604Z,101893.63
2023-05-21T19:11:43.753Z,101896.13
2023-05-21T19:13:50.084Z,101897.38
2023-05-21T19:15:55.218Z,101907.78
2023-05-21T19:18:01.754Z,101906.97
2023-05-21T19:20:11.622Z,101907.59
2023-05-21T19:22:19.354Z,101905.84
2023-05-21T19:24:27.216Z,101902.53
2023-05-21T19:26:32.684Z,101901.75
2023-05-21T19:28:40.766Z,101904.56
2023-05-21T19:30:51.217Z,101901.47
2023-05-21T19:33:01.506Z,101904.78
2023-05-21T19:35:07.845Z,101904.13
2023-05-21T19:37:15.491Z,101900.72
2023-05-21T19:39:20.665Z,101901.81
2023-05-21T19:41:38.667Z,101896.00
2023-05-21T19:43:45.308Z,101898.66
2023-05-21T19:45:52.375Z,101898.66
2023-05-21T19:47:59.552Z,101897.09
2023-05-21T19:50:05.083Z,101891.88
2023-05-21T19:52:10.986Z,101895.50
2023-05-21T19:54:15.969Z,101893.88
2023-05-21T19:56:27.792Z,101891.97
2023-05-21T19:58:39.503Z,101894.69
2023-05-21T20:00:51.162Z,101898.94
2023-05-21T20:02:56.543Z,101899.88
2023-05-21T20:05:01.626Z,101899.88
2023-05-21T20:07:13.430Z,101900.38
2023-05-21T20:09:20.887Z,101904.97
2023-05-21T20:11:26.561Z,101894.56
2023-05-21T20:13:32.020Z,101894.69
2023-05-21T20:15:41.410Z,101896.50
2023-05-21T20:17:55.427Z,101896.50
2023-05-21T20:20:01.715Z,101901.47
2023-05-21T20:22:11.085Z,101898.97
2023-05-21T20:24:23.449Z,101901.63
2023-05-21T20:26:36.003Z,101896.44
2023-05-21T20:28:43.348Z,101905.06
2023-05-21T20:31:02.967Z,101894.66
2023-05-21T20:33:10.101Z,101896.53
2023-05-21T20:35:18.101Z,101897.59
2023-05-21T20:37:27.152Z,101889.72
2023-05-21T20:39:38.547Z,101886.34
2023-05-21T20:41:45.198Z,101892.56
2023-05-21T20:43:54.457Z,101883.72
2023-05-21T20:46:05.992Z,101889.94
2023-05-21T20:48:12.201Z,101893.56
2023-05-21T20:50:26.116Z,101895.22
2023-05-21T20:52:32.483Z,101891.03
2023-05-21T20:54:41.336Z,101893.72
2023-05-21T20:56:51.041Z,101899.19
2023-05-21T20:58:57.336Z,101902.75
2023-05-21T21:01:05.008Z,101889.72
2023-05-21T21:03:18.320Z,101896.78
2023-05-21T21:05:26.852Z,101896.78
2023-05-21T21:07:36.712Z,101898.53
2023-05-21T21:09:43.624Z,101890.56
2023-05-21T21:11:51.435Z,101888.59
2023-05-21T21:14:04.682Z,101887.97
2023-05-21T21:16:14.703Z,101889.75
2023-05-21T21:18:22.010Z,101879.28
2023-05-21T21:20:27.562Z,101887.34
2023-05-21T21:22:34.739Z,101888.22
2023-05-21T21:24:39.877Z,101885.00
2023-05-21T21:26:45.226Z,101878.28
2023-05-21T21:28:52.882Z,101892.00
2023-05-21T21:30:59.915Z,101884.13
2023-05-21T21:33:08.187Z,101880.63
2023-05-21T21:35:13.953Z,101886.78
2023-05-21T21:37:19.384Z,101885.91
2023-05-21T21:39:26.497Z,101881.75
2023-05-21T21:41:34.774Z,101888.84
2023-05-21T21:43:42.347Z,101888.78
2023-05-21T21:45:52.734Z,101881.81
2023-05-21T21:47:58.678Z,101889.84
2023-05-21T21:50:08.507Z,101884.47
2023-05-21T21:52:15.776Z,101884.59
2023-05-21T21:54:24.073Z,101885.59
2023-05-21T21:56:30.582Z,101877.66
2023-05-21T21:58:35.948Z,101879.34
2023-05-21T22:00:44.666Z,101876.81
2023-05-21T22:02:53.049Z,101884.78
2023-05-21T22:05:02.542Z,101884.78
2023-05-21T22:07:11.754Z,101876.81
2023-05-21T22:09:19.378Z,101872.41
2023-05-21T22:11:27.151Z,101876.97
2023-05-21T22:13:35.336Z,101869.00
2023-05-21T22:15:40.803Z,101867.13
2023-05-21T22:17:46.177Z,101873.31
2023-05-21T22:19:54.288Z,101880.47
2023-05-21T22:22:00.068Z,101883.25
2023-05-21T22:24:30.320Z,101876.16
2023-05-21T22:26:41.481Z,101866.47
2023-05-21T22:28:46.858Z,101871.75
2023-05-21T22:30:53.796Z,101873.47
2023-05-21T22:33:00.480Z,101862.16
2023-05-21T22:35:08.256Z,101858.56
2023-05-21T22:37:16.359Z,101867.44
2023-05-21T22:39:27.942Z,101860.41
2023-05-21T22:41:35.625Z,101855.06
2023-05-21T22:43:45.296Z,101861.25
2023-05-21T22:45:52.064Z,101858.66
2023-05-21T22:48:07.575Z,101863.16
2023-05-21T22:50:14.099Z,101854.41
2023-05-21T22:52:22.798Z,101859.53
2023-05-21T22:54:30.502Z,101865.69
2023-05-21T22:56:36.888Z,101862.31
2023-05-21T22:58:43.346Z,101857.78
2023-05-21T23:00:49.710Z,101858.81
2023-05-21T23:02:55.423Z,101857.09
2023-05-21T23:05:00.743Z,101854.53
2023-05-21T23:07:06.124Z,101861.44
2023-05-21T23:09:12.905Z,101865.06
2023-05-21T23:11:22.601Z,101848.38
2023-05-21T23:13:28.797Z,101871.28
2023-05-21T23:15:45.287Z,101856.53
2023-05-21T23:17:52.001Z,101857.34
2023-05-21T23:19:57.932Z,101852.09
2023-05-21T23:22:03.314Z,101848.53
2023-05-21T23:24:09.127Z,101845.97
2023-05-21T23:26:15.227Z,101853.09
2023-05-21T23:28:27.148Z,101846.06
2023-05-21T23:30:35.810Z,101847.81
2023-05-21T23:32:45.923Z,101847.06
2023-05-21T23:34:58.158Z,101847.94
2023-05-21T23:37:03.987Z,101837.38
2023-05-21T23:39:10.630Z,101836.59
2023-05-21T23:41:17.736Z,101842.72
2023-05-21T23:43:30.581Z,101841.03
2023-05-21T23:45:35.677Z,101837.56
2023-05-21T23:47:41.344Z,101836.59
2023-05-21T23:49:47.695Z,101837.56
2023-05-21T23:51:54.066Z,101836.59
2023-05-21T23:54:00.079Z,101841.88
2023-05-21T23:56:10.127Z,101837.50
2023-05-21T23:58:15.422Z,101834.84
